Time;durP1;ratioP1;P1;durP2;ratioP2;P2;SDS_P1;SDS_P2;PMS_P1;PMS_P2;Temp;Humidity;BMP_temperature;BMP_pressure;BME280_temperature;BME280_humidity;BME280_pressure;Samples;Min_cycle;Max_cycle;Signal;HPM_P1;HPM_P2
2024/01/14 11:15:27;;;;;;;25.63;16.67;;;1.70;99.90;;;;;;5176807;27;20582;-74
2024/01/14 11:17:58;;;;;;;24.73;16.73;;;1.70;99.90;;;;;;5111608;28;20203;-76
2024/01/14 11:20:37;;;;;;;24.37;16.27;;;1.70;99.90;;;;;;5093053;28;20248;-74
2024/01/14 11:23:09;;;;;;;23.37;15.97;;;1.70;99.90;;;;;;5095470;28;20180;-75
2024/01/14 11:25:36;;;;;;;28.27;18.87;;;1.70;99.90;;;;;;5096694;28;20218;-77
2024/01/14 11:28:06;;;;;;;26.20;17.47;;;1.70;99.90;;;;;;5097208;28;20243;-76
2024/01/14 11:30:49;;;;;;;25.87;17.03;;;1.80;99.90;;;;;;5101440;28;20183;-76
2024/01/14 11:33:42;;;;;;;25.27;16.83;;;1.80;99.90;;;;;;5101652;28;20265;-76
2024/01/14 11:36:09;;;;;;;24.90;16.47;;;1.70;99.90;;;;;;5100865;28;20203;-78
2024/01/14 11:38:43;;;;;;;24.37;16.73;;;1.60;99.90;;;;;;5097786;28;20236;-78
2024/01/14 11:41:28;;;;;;;24.43;17.83;;;1.60;99.90;;;;;;5094509;28;20164;-75
2024/01/14 11:44:02;;;;;;;25.80;17.17;;;1.60;99.90;;;;;;5137778;28;20175;-77
2024/01/14 11:46:47;;;;;;;24.93;18.03;;;1.50;99.90;;;;;;5120362;28;20195;-78
2024/01/14 11:49:17;;;;;;;24.07;17.40;;;1.50;99.90;;;;;;5114893;28;20172;-75
2024/01/14 11:52:01;;;;;;;30.60;18.27;;;1.60;99.90;;;;;;5112823;28;20211;-75
2024/01/14 11:54:27;;;;;;;26.17;17.70;;;1.50;99.90;;;;;;5112717;28;20212;-75
2024/01/14 11:56:53;;;;;;;27.30;17.77;;;1.50;99.90;;;;;;5113127;28;20191;-76
2024/01/14 11:59:18;;;;;;;26.17;17.27;;;1.60;99.90;;;;;;5112424;28;20270;-75
2024/01/14 12:01:44;;;;;;;27.47;17.40;;;1.60;99.90;;;;;;5112769;28;20201;-75
2024/01/14 12:04:10;;;;;;;28.70;18.60;;;1.60;99.90;;;;;;5112655;28;20179;-75
2024/01/14 12:06:47;;;;;;;27.53;18.20;;;1.60;99.90;;;;;;5112307;28;20191;-75
2024/01/14 12:09:13;;;;;;;28.33;17.63;;;1.70;99.90;;;;;;5112328;28;20179;-75
2024/01/14 12:11:41;;;;;;;26.27;18.37;;;1.60;99.90;;;;;;5130812;28;20175;-75
2024/01/14 12:14:07;;;;;;;27.27;17.27;;;1.60;99.90;;;;;;5108331;28;20225;-75
2024/01/14 12:16:33;;;;;;;34.87;21.43;;;1.60;99.90;;;;;;5111191;28;20195;-78
2024/01/14 12:18:59;;;;;;;28.63;18.30;;;1.60;99.90;;;;;;5110713;28;20175;-75
2024/01/14 12:21:26;;;;;;;30.20;19.07;;;1.60;99.90;;;;;;5128518;28;20160;-83
2024/01/14 12:23:53;;;;;;;26.50;18.53;;;1.50;99.90;;;;;;5130502;28;20168;-76
2024/01/14 12:26:19;;;;;;;30.30;19.30;;;1.50;99.90;;;;;;5095603;28;20211;-76
2024/01/14 12:28:46;;;;;;;29.97;18.30;;;1.40;99.90;;;;;;5113919;28;20233;-76
2024/01/14 12:31:24;;;;;;;28.93;18.90;;;1.40;99.90;;;;;;5109951;28;20181;-76
2024/01/14 12:33:49;;;;;;;32.90;19.43;;;1.50;99.90;;;;;;5096686;28;20249;-76
2024/01/14 12:36:15;;;;;;;27.17;17.53;;;1.50;99.90;;;;;;5094334;28;20192;-75
2024/01/14 12:38:44;;;;;;;28.30;18.57;;;1.60;99.90;;;;;;5096922;28;20179;-75
2024/01/14 12:41:11;;;;;;;27.57;17.47;;;1.50;99.90;;;;;;5098577;28;20160;-77
2024/01/14 12:43:37;;;;;;;28.67;18.70;;;1.50;99.90;;;;;;5097637;28;20206;-76
2024/01/14 12:46:03;;;;;;;30.83;18.77;;;1.50;99.90;;;;;;5083259;28;20216;-75
2024/01/14 12:48:29;;;;;;;29.57;19.23;;;1.50;99.90;;;;;;5081672;28;20251;-75
2024/01/14 12:51:00;;;;;;;26.30;17.87;;;1.40;99.90;;;;;;5078257;28;20218;-77
2024/01/14 12:53:27;;;;;;;32.40;19.23;;;1.40;99.90;;;;;;5078275;28;20189;-75
2024/01/14 12:56:16;;;;;;;26.17;17.83;;;1.40;99.90;;;;;;5078625;28;20200;-75
2024/01/14 12:58:42;;;;;;;29.13;18.83;;;1.50;99.90;;;;;;5084355;28;20161;-76
2024/01/14 13:01:11;;;;;;;27.63;18.70;;;1.50;99.90;;;;;;5087656;28;20185;-76
2024/01/14 13:03:39;;;;;;;28.07;17.80;;;1.40;99.90;;;;;;5084316;28;20181;-76
2024/01/14 13:06:05;;;;;;;27.43;17.93;;;1.40;99.90;;;;;;5083787;28;20193;-77
2024/01/14 13:08:34;;;;;;;31.73;19.73;;;1.40;99.90;;;;;;5078242;28;20173;-75
2024/01/14 13:11:00;;;;;;;28.37;18.73;;;1.40;99.90;;;;;;5077122;28;20165;-75
2024/01/14 13:13:28;;;;;;;29.13;19.13;;;1.50;99.90;;;;;;5078211;28;20215;-75
2024/01/14 13:15:54;;;;;;;30.80;19.93;;;1.40;99.90;;;;;;5077419;28;20199;-75
2024/01/14 13:18:21;;;;;;;29.93;18.13;;;1.50;99.90;;;;;;5077628;28;20176;-75
2024/01/14 13:20:47;;;;;;;30.87;18.80;;;1.50;99.90;;;;;;5077723;28;20231;-73
2024/01/14 13:23:13;;;;;;;32.40;19.80;;;1.50;99.90;;;;;;5077404;28;20169;-74
2024/01/14 13:25:38;;;;;;;28.97;18.03;;;1.50;99.90;;;;;;5078575;28;20218;-74
2024/01/14 13:28:04;;;;;;;30.33;18.90;;;1.40;99.90;;;;;;5080363;28;20169;-74
2024/01/14 13:30:30;;;;;;;32.33;19.40;;;1.30;99.90;;;;;;5087096;28;20232;-74
2024/01/14 13:32:57;;;;;;;29.83;18.30;;;1.20;99.90;;;;;;5078231;28;20180;-73
2024/01/14 13:35:23;;;;;;;29.83;19.00;;;1.20;99.90;;;;;;5098861;28;20177;-74
2024/01/14 13:37:54;;;;;;;30.17;18.30;;;1.20;99.90;;;;;;5085519;28;20226;-75
2024/01/14 13:40:19;;;;;;;29.03;18.77;;;1.20;99.90;;;;;;5078000;28;20169;-74
2024/01/14 13:42:49;;;;;;;29.60;18.93;;;1.20;99.90;;;;;;5098069;28;20157;-77
2024/01/14 13:45:31;;;;;;;27.23;17.77;;;1.30;99.90;;;;;;5077979;28;20165;-77
2024/01/14 13:48:00;;;;;;;26.73;17.77;;;1.40;99.90;;;;;;5077887;28;20179;-74
2024/01/14 13:50:28;;;;;;;28.87;17.77;;;1.30;99.90;;;;;;5094929;28;20161;-74
2024/01/14 13:52:55;;;;;;;32.33;18.63;;;1.30;99.90;;;;;;5076805;28;20181;-75
2024/01/14 13:55:25;;;;;;;29.63;18.70;;;1.20;99.90;;;;;;5086957;28;20173;-77
2024/01/14 13:57:52;;;;;;;32.50;19.87;;;1.20;99.90;;;;;;5086814;28;20201;-76
2024/01/14 14:00:18;;;;;;;27.70;17.97;;;1.20;99.90;;;;;;5080229;28;20314;-77
2024/01/14 14:02:44;;;;;;;29.83;18.33;;;1.10;99.90;;;;;;5077672;28;20177;-77
2024/01/14 14:05:11;;;;;;;30.80;17.30;;;0.90;99.90;;;;;;5079891;28;20177;-77
2024/01/14 14:07:37;;;;;;;29.97;19.67;;;0.90;99.90;;;;;;5078651;28;20199;-74
2024/01/14 14:10:04;;;;;;;30.93;19.33;;;0.90;99.90;;;;;;5076335;28;20180;-75
2024/01/14 14:12:29;;;;;;;28.57;18.07;;;0.80;99.90;;;;;;5077161;28;20179;-74
2024/01/14 14:14:58;;;;;;;29.63;18.53;;;0.70;99.90;;;;;;5076024;28;20299;-74
2024/01/14 14:17:24;;;;;;;30.07;18.17;;;0.70;99.90;;;;;;5083771;28;20212;-76
2024/01/14 14:19:53;;;;;;;27.00;16.90;;;0.70;99.90;;;;;;5077119;28;20181;-75
2024/01/14 14:22:20;;;;;;;28.33;17.37;;;0.60;99.90;;;;;;5077840;28;20193;-76
2024/01/14 14:25:00;;;;;;;29.80;17.50;;;0.60;99.90;;;;;;5077027;28;20659;-74
2024/01/14 14:27:40;;;;;;;26.27;17.10;;;0.60;99.90;;;;;;5094217;28;20205;-74
2024/01/14 14:30:47;;;;;;;30.73;18.40;;;0.60;99.90;;;;;;5075999;28;20215;-74
2024/01/14 14:33:16;;;;;;;29.80;17.53;;;0.60;99.90;;;;;;5077486;28;20204;-86
2024/01/14 14:35:42;;;;;;;31.80;18.33;;;0.50;99.90;;;;;;5092830;28;20180;-74
2024/01/14 14:38:07;;;;;;;29.70;17.90;;;0.50;99.90;;;;;;5078456;28;20173;-74
2024/01/14 14:40:34;;;;;;;27.47;16.47;;;0.50;99.90;;;;;;5075907;28;20180;-74
2024/01/14 14:43:03;;;;;;;26.47;16.77;;;0.50;99.90;;;;;;5076946;28;20173;-76
2024/01/14 14:45:30;;;;;;;28.97;16.80;;;0.50;99.90;;;;;;5080653;28;20265;-76
2024/01/14 14:47:58;;;;;;;27.87;16.80;;;0.40;99.90;;;;;;5083238;28;20223;-76
2024/01/14 14:50:24;;;;;;;26.30;15.97;;;0.50;99.90;;;;;;5076906;28;20205;-76
2024/01/14 14:53:18;;;;;;;26.00;16.40;;;0.40;99.90;;;;;;5076074;28;20165;-76
2024/01/14 14:56:35;;;;;;;27.63;16.07;;;0.40;99.90;;;;;;5093955;28;20245;-75
2024/01/14 14:59:13;;;;;;;28.00;16.27;;;0.50;99.90;;;;;;5078336;28;20173;-74
2024/01/14 15:01:50;;;;;;;27.83;16.50;;;0.60;99.90;;;;;;5075647;28;20164;-74
2024/01/14 15:04:18;;;;;;;27.13;16.40;;;0.60;99.90;;;;;;5075694;28;20173;-74
2024/01/14 15:07:02;;;;;;;27.07;15.27;;;0.60;99.90;;;;;;5093540;28;20275;-74
2024/01/14 15:09:30;;;;;;;25.77;15.80;;;0.50;99.90;;;;;;5075851;28;20177;-74
2024/01/14 15:12:14;;;;;;;25.53;15.53;;;0.60;99.90;;;;;;5076436;28;20169;-74
2024/01/14 15:15:19;;;;;;;24.77;15.70;;;0.50;99.90;;;;;;5075373;28;20204;-74
2024/01/14 15:17:44;;;;;;;27.97;16.33;;;0.60;99.90;;;;;;5075871;28;20196;-74
2024/01/14 15:20:11;;;;;;;26.33;15.57;;;0.60;99.90;;;;;;5079012;28;20256;-82
2024/01/14 15:22:49;;;;;;;22.30;14.93;;;0.60;99.90;;;;;;5080905;28;20173;-75
2024/01/14 15:25:27;;;;;;;25.30;15.57;;;0.60;99.90;;;;;;5097220;28;20168;-74
2024/01/14 15:28:05;;;;;;;24.13;14.33;;;0.60;99.90;;;;;;5075646;28;20192;-74
2024/01/14 15:30:35;;;;;;;25.80;14.77;;;0.50;99.90;;;;;;5075635;28;20198;-74
2024/01/14 15:33:06;;;;;;;25.03;14.50;;;0.60;99.90;;;;;;5075212;28;20176;-74
2024/01/14 15:35:58;;;;;;;21.67;13.77;;;0.50;99.90;;;;;;5085714;28;20228;-74
2024/01/14 15:38:29;;;;;;;24.50;15.13;;;0.40;99.90;;;;;;5092151;28;20165;-74
2024/01/14 15:40:55;;;;;;;26.00;15.00;;;0.40;99.90;;;;;;5085062;28;20168;-74
2024/01/14 15:43:43;;;;;;;24.03;15.03;;;0.40;99.90;;;;;;5095761;28;20164;-76
2024/01/14 15:46:27;;;;;;;26.50;16.43;;;0.40;99.90;;;;;;5102561;28;20208;-76
2024/01/14 15:49:00;;;;;;;25.03;15.20;;;0.40;99.90;;;;;;5096542;28;20176;-76
2024/01/14 15:51:26;;;;;;;24.23;15.73;;;0.40;99.90;;;;;;5098973;28;20164;-75
2024/01/14 15:54:19;;;;;;;25.40;15.70;;;0.30;99.90;;;;;;5099129;28;20195;-76
2024/01/14 15:56:54;;;;;;;24.17;15.57;;;0.30;99.90;;;;;;5081686;28;20193;-76
2024/01/14 16:00:01;;;;;;;23.27;14.97;;;0.30;99.90;;;;;;5077555;28;20164;-74
2024/01/14 16:02:30;;;;;;;21.47;14.17;;;0.30;99.90;;;;;;5105553;28;20240;-76
2024/01/14 16:04:56;;;;;;;27.33;15.20;;;0.30;99.90;;;;;;5102559;28;20172;-75
2024/01/14 16:07:24;;;;;;;26.20;15.33;;;0.30;99.90;;;;;;5093541;28;20230;-75
2024/01/14 16:09:53;;;;;;;26.17;15.70;;;0.30;99.90;;;;;;5085108;28;20177;-80
2024/01/14 16:12:18;;;;;;;22.97;14.80;;;0.30;99.90;;;;;;5096846;28;20184;-74
2024/01/14 16:14:44;;;;;;;25.63;15.60;;;0.40;99.90;;;;;;5081428;28;20212;-77
2024/01/14 16:17:12;;;;;;;27.73;16.53;;;0.40;99.90;;;;;;5085113;28;20201;-74
2024/01/14 16:19:57;;;;;;;23.67;15.07;;;0.40;99.90;;;;;;5078982;28;20177;-76
2024/01/14 16:22:28;;;;;;;22.27;14.13;;;0.40;99.90;;;;;;5078479;28;20173;-74
2024/01/14 16:24:59;;;;;;;23.20;14.93;;;0.40;99.90;;;;;;5083357;28;20173;-78
2024/01/14 16:27:35;;;;;;;27.27;16.43;;;0.40;99.90;;;;;;5079445;28;20559;-77
2024/01/14 16:30:01;;;;;;;25.00;17.03;;;0.40;99.90;;;;;;5079411;28;20172;-76
2024/01/14 16:32:30;;;;;;;24.67;15.97;;;0.40;99.90;;;;;;5078588;28;20176;-76
2024/01/14 16:35:24;;;;;;;23.93;14.73;;;0.40;99.90;;;;;;5096330;28;20321;-75
2024/01/14 16:37:52;;;;;;;26.67;15.37;;;0.40;99.90;;;;;;5078864;28;20208;-78
2024/01/14 16:40:18;;;;;;;24.87;15.30;;;0.40;99.90;;;;;;5100098;28;20145;-76
2024/01/14 16:42:44;;;;;;;25.13;14.90;;;0.40;99.90;;;;;;5084600;28;20169;-76
2024/01/14 16:45:12;;;;;;;24.57;14.87;;;0.30;99.90;;;;;;5078338;28;20161;-75
2024/01/14 16:47:45;;;;;;;23.83;15.23;;;0.30;99.90;;;;;;5085737;28;20200;-76
2024/01/14 16:50:11;;;;;;;21.20;14.57;;;0.30;99.90;;;;;;5087689;28;20172;-77
2024/01/14 16:52:38;;;;;;;25.13;15.50;;;0.30;99.90;;;;;;5088219;28;20173;-76
2024/01/14 16:55:13;;;;;;;22.80;14.23;;;0.20;99.90;;;;;;5082268;28;20184;-75
2024/01/14 16:57:57;;;;;;;25.37;14.70;;;0.10;99.90;;;;;;5096212;28;20188;-75
2024/01/14 17:00:23;;;;;;;24.83;14.70;;;0.10;99.90;;;;;;5113939;28;20215;-76
2024/01/14 17:02:49;;;;;;;27.87;15.40;;;0.10;99.90;;;;;;5116522;28;20200;-75
2024/01/14 17:05:15;;;;;;;25.60;15.73;;;0.10;99.90;;;;;;5097981;28;20213;-78
2024/01/14 17:07:43;;;;;;;26.20;15.43;;;0.10;99.90;;;;;;5098065;28;20306;-77
2024/01/14 17:10:09;;;;;;;26.23;15.83;;;0.10;99.90;;;;;;5107520;28;20222;-76
2024/01/14 17:12:43;;;;;;;26.13;15.30;;;0.10;99.90;;;;;;5101669;28;20181;-75
2024/01/14 17:15:10;;;;;;;35.80;21.27;;;0.20;99.90;;;;;;5077648;28;20211;-75
2024/01/14 17:17:36;;;;;;;71.67;42.80;;;0.30;99.90;;;;;;5077781;28;20196;-75
2024/01/14 17:20:03;;;;;;;34.30;22.07;;;0.20;99.90;;;;;;5095423;28;20187;-75
2024/01/14 17:22:28;;;;;;;35.33;22.63;;;0.20;99.90;;;;;;5095273;28;20730;-75
2024/01/14 17:24:56;;;;;;;26.57;16.30;;;0.20;99.90;;;;;;5081752;28;20266;-75
2024/01/14 17:27:22;;;;;;;25.80;15.57;;;0.20;99.90;;;;;;5114766;28;20208;-78
2024/01/14 17:29:48;;;;;;;27.87;17.97;;;0.20;99.90;;;;;;5084735;28;20179;-81
2024/01/14 17:32:22;;;;;;;25.73;16.33;;;0.20;99.90;;;;;;5077685;28;20222;-75
2024/01/14 17:34:47;;;;;;;24.70;15.40;;;0.20;99.90;;;;;;5077012;28;20243;-75
2024/01/14 17:37:13;;;;;;;27.50;16.17;;;0.20;99.90;;;;;;5077130;28;20224;-77
2024/01/14 17:39:38;;;;;;;27.37;16.10;;;0.20;99.90;;;;;;5082051;28;20173;-76
2024/01/14 17:42:05;;;;;;;25.83;15.80;;;0.20;99.90;;;;;;5077770;28;20195;-76
2024/01/14 17:44:31;;;;;;;26.83;16.90;;;0.10;99.90;;;;;;5085912;28;20215;-76
2024/01/14 17:46:56;;;;;;;28.27;16.87;;;0.10;99.90;;;;;;5103941;28;20188;-77
2024/01/14 17:49:22;;;;;;;26.70;16.67;;;0.00;99.90;;;;;;5086912;28;20177;-76
2024/01/14 17:51:48;;;;;;;31.30;17.27;;;0.00;99.90;;;;;;5085800;28;20714;-75
2024/01/14 17:54:13;;;;;;;34.77;19.57;;;0.00;99.90;;;;;;5076961;28;20223;-75
2024/01/14 17:56:39;;;;;;;31.43;18.83;;;-0.10;99.90;;;;;;5076352;28;20197;-75
2024/01/14 17:59:07;;;;;;;32.07;18.93;;;-0.10;99.90;;;;;;5078038;28;20189;-77
2024/01/14 18:01:33;;;;;;;32.63;18.80;;;-0.10;99.90;;;;;;5096714;28;20165;-77
2024/01/14 18:03:59;;;;;;;34.77;19.07;;;0.00;99.90;;;;;;5097066;28;20182;-77
2024/01/14 18:06:24;;;;;;;33.60;19.33;;;0.00;99.90;;;;;;5079236;28;20197;-79
2024/01/14 18:08:51;;;;;;;34.27;18.83;;;0.00;99.90;;;;;;5078614;28;20177;-77
2024/01/14 18:11:29;;;;;;;32.67;19.63;;;0.00;99.90;;;;;;5079852;28;20173;-77
2024/01/14 18:13:55;;;;;;;33.47;18.70;;;-0.10;99.90;;;;;;5097736;28;20284;-77
2024/01/14 18:16:20;;;;;;;30.20;18.07;;;-0.10;99.90;;;;;;5106412;28;20191;-75
2024/01/14 18:18:50;;;;;;;34.77;19.80;;;-0.20;99.90;;;;;;5115882;28;20161;-75
2024/01/14 18:21:19;;;;;;;37.30;22.10;;;-0.10;99.90;;;;;;5097832;28;20164;-75
2024/01/14 18:23:45;;;;;;;34.63;18.80;;;-0.10;99.90;;;;;;5103257;28;20195;-78
2024/01/14 18:26:23;;;;;;;36.87;20.80;;;-0.20;99.90;;;;;;5102275;28;20192;-75
2024/01/14 18:28:49;;;;;;;37.47;21.60;;;-0.10;99.90;;;;;;5098469;28;20168;-75
2024/01/14 18:31:16;;;;;;;35.10;19.33;;;-0.20;99.90;;;;;;5104919;28;20248;-76
2024/01/14 18:33:42;;;;;;;35.60;19.33;;;-0.20;99.90;;;;;;5106979;28;20192;-77
2024/01/14 18:36:08;;;;;;;38.07;20.73;;;-0.10;99.90;;;;;;5106495;28;20195;-76
2024/01/14 18:38:34;;;;;;;40.97;26.00;;;-0.20;99.90;;;;;;5105076;28;20176;-84
2024/01/14 18:40:59;;;;;;;38.10;22.20;;;-0.20;99.90;;;;;;5104471;28;20168;-76
2024/01/14 18:43:25;;;;;;;35.70;21.63;;;-0.30;99.90;;;;;;5102503;28;20519;-75
2024/01/14 18:45:51;;;;;;;35.43;20.57;;;-0.30;99.90;;;;;;5100020;28;20257;-76
2024/01/14 18:48:16;;;;;;;36.67;21.20;;;-0.30;99.90;;;;;;5120476;28;20161;-75
2024/01/14 18:50:42;;;;;;;41.83;23.30;;;-0.40;99.90;;;;;;5115819;28;20231;-76
2024/01/14 18:53:07;;;;;;;40.27;23.33;;;-0.40;99.90;;;;;;5119798;28;20168;-78
2024/01/14 18:55:39;;;;;;;43.47;27.10;;;-0.30;99.90;;;;;;5101447;28;20187;-76
2024/01/14 18:58:07;;;;;;;50.77;31.87;;;-0.30;99.90;;;;;;5097298;28;20168;-76
2024/01/14 19:00:33;;;;;;;46.63;28.97;;;-0.20;99.90;;;;;;5079069;28;20176;-76
2024/01/14 19:02:59;;;;;;;57.70;36.80;;;-0.20;99.90;;;;;;5076973;28;20165;-75
2024/01/14 19:05:38;;;;;;;45.33;25.37;;;-0.10;99.90;;;;;;5094330;28;20160;-77
2024/01/14 19:08:27;;;;;;;39.00;23.43;;;-0.20;99.90;;;;;;5076258;28;20680;-76
2024/01/14 19:10:57;;;;;;;43.70;25.77;;;-0.30;99.90;;;;;;5078332;28;20187;-76
2024/01/14 19:13:25;;;;;;;43.67;24.07;;;-0.30;99.90;;;;;;5077135;28;20212;-77
2024/01/14 19:16:33;;;;;;;37.60;21.67;;;-0.30;99.90;;;;;;5076323;28;20180;-76
2024/01/14 19:19:15;;;;;;;38.33;21.13;;;-0.30;99.90;;;;;;5075652;28;20177;-75
2024/01/14 19:22:10;;;;;;;39.20;22.40;;;-0.30;99.90;;;;;;5076259;28;20181;-80
2024/01/14 19:24:42;;;;;;;32.80;19.03;;;-0.30;99.90;;;;;;5075562;28;20199;-75
2024/01/14 19:27:11;;;;;;;36.70;20.87;;;-0.30;99.90;;;;;;5078558;28;20197;-85
2024/01/14 19:29:37;;;;;;;37.00;22.03;;;-0.40;99.90;;;;;;5077822;28;20184;-77
2024/01/14 19:32:03;;;;;;;41.80;22.47;;;-0.40;99.90;;;;;;5102964;28;20165;-76
2024/01/14 19:34:32;;;;;;;38.17;21.17;;;-0.40;99.90;;;;;;5083667;28;20209;-78
2024/01/14 19:37:55;;;;;;;38.10;21.90;;;-0.40;99.90;;;;;;5081968;28;20302;-78
2024/01/14 19:40:20;;;;;;;38.50;21.27;;;-0.40;99.90;;;;;;5084202;28;20229;-78
2024/01/14 19:42:46;;;;;;;36.73;21.20;;;-0.40;99.90;;;;;;5087292;28;20211;-77
2024/01/14 19:45:12;;;;;;;34.87;20.10;;;-0.40;99.90;;;;;;5086503;28;20180;-80
2024/01/14 19:47:42;;;;;;;41.93;23.07;;;-0.40;99.90;;;;;;5081000;28;20192;-83
2024/01/14 19:50:09;;;;;;;39.00;20.50;;;-0.40;99.90;;;;;;5079997;28;20209;-76
2024/01/14 19:52:34;;;;;;;42.67;22.53;;;-0.50;99.90;;;;;;5100717;28;20173;-75
2024/01/14 19:55:00;;;;;;;38.57;23.20;;;-0.40;99.90;;;;;;5097344;28;20666;-75
2024/01/14 19:57:26;;;;;;;48.67;30.60;;;-0.40;99.90;;;;;;5078798;28;20220;-75
2024/01/14 19:59:51;;;;;;;61.50;37.57;;;-0.40;99.90;;;;;;5097248;28;20696;-75
2024/01/14 20:02:17;;;;;;;45.97;25.40;;;-0.40;99.90;;;;;;5078934;28;20260;-75
2024/01/14 20:04:43;;;;;;;47.03;27.93;;;-0.50;99.90;;;;;;5078664;28;20181;-75
2024/01/14 20:07:11;;;;;;;46.70;26.17;;;-0.50;99.90;;;;;;5078771;28;20201;-75
2024/01/14 20:09:37;;;;;;;45.00;25.93;;;-0.50;99.90;;;;;;5081468;28;20264;-76
2024/01/14 20:12:04;;;;;;;45.13;26.57;;;-0.50;99.90;;;;;;5084928;28;20180;-75
2024/01/14 20:14:31;;;;;;;126.23;60.03;;;-0.50;99.90;;;;;;5078384;28;20219;-75
2024/01/14 20:16:56;;;;;;;70.37;34.63;;;-0.50;99.90;;;;;;5096932;28;20189;-75
2024/01/14 20:19:22;;;;;;;47.13;27.23;;;-0.60;99.90;;;;;;5078427;28;20172;-75
2024/01/14 20:21:50;;;;;;;46.30;23.77;;;-0.60;99.90;;;;;;5079269;28;20532;-75
2024/01/14 20:24:30;;;;;;;44.50;22.97;;;-0.60;99.90;;;;;;5079171;28;20177;-75
2024/01/14 20:26:56;;;;;;;40.47;21.53;;;-0.60;99.90;;;;;;5079458;28;20262;-75
2024/01/14 20:29:22;;;;;;;36.13;20.67;;;-0.60;99.90;;;;;;5078341;28;20222;-75
2024/01/14 20:31:47;;;;;;;38.73;22.13;;;-0.60;99.90;;;;;;5078225;28;20283;-75
2024/01/14 20:34:13;;;;;;;38.73;20.47;;;-0.50;99.90;;;;;;5096185;28;20193;-75
2024/01/14 20:36:48;;;;;;;36.47;20.87;;;-0.50;99.90;;;;;;5078484;28;20252;-75
2024/01/14 20:39:13;;;;;;;34.27;19.33;;;-0.50;99.90;;;;;;5096233;28;20157;-75
2024/01/14 20:41:39;;;;;;;33.73;20.03;;;-0.50;99.90;;;;;;5078131;28;20202;-75
2024/01/14 20:44:49;;;;;;;37.73;21.63;;;-0.50;99.90;;;;;;5096077;28;20666;-75
2024/01/14 20:47:15;;;;;;;36.23;19.63;;;-0.50;99.90;;;;;;5078543;28;20204;-75
2024/01/14 20:49:41;;;;;;;36.40;20.47;;;-0.50;99.90;;;;;;5096213;28;20180;-75
2024/01/14 20:52:07;;;;;;;37.37;21.50;;;-0.50;99.90;;;;;;5096059;28;20185;-75
2024/01/14 20:54:34;;;;;;;35.47;20.53;;;-0.50;99.90;;;;;;5095905;28;20200;-75
2024/01/14 20:56:59;;;;;;;42.00;21.43;;;-0.50;99.90;;;;;;5078280;28;20208;-76
2024/01/14 20:59:25;;;;;;;38.93;20.97;;;-0.60;99.90;;;;;;5095914;28;20173;-75
2024/01/14 21:02:26;;;;;;;37.50;20.80;;;-0.60;99.90;;;;;;5078490;28;20177;-75
2024/01/14 21:04:52;;;;;;;38.57;21.50;;;-0.60;99.90;;;;;;5096581;28;20171;-76
2024/01/14 21:07:22;;;;;;;37.10;22.07;;;-0.60;99.90;;;;;;5084980;28;20201;-76
2024/01/14 21:09:55;;;;;;;42.20;21.83;;;-0.60;99.90;;;;;;5078278;28;20219;-74
2024/01/14 21:12:45;;;;;;;39.07;22.07;;;-0.60;99.90;;;;;;5096004;28;20157;-78
2024/01/14 21:15:13;;;;;;;38.27;21.13;;;-0.50;99.90;;;;;;5095462;28;20674;-74
2024/01/14 21:17:54;;;;;;;40.60;21.63;;;-0.50;99.90;;;;;;5077085;28;20201;-75
2024/01/14 21:20:20;;;;;;;36.40;20.77;;;-0.50;99.90;;;;;;5095658;28;20249;-75
2024/01/14 21:22:48;;;;;;;38.43;21.07;;;-0.50;99.90;;;;;;5078470;28;20184;-78
2024/01/14 21:25:19;;;;;;;36.97;20.27;;;-0.50;99.90;;;;;;5077510;28;20181;-76
2024/01/14 21:27:45;;;;;;;36.53;21.07;;;-0.40;99.90;;;;;;5085207;28;20204;-76
2024/01/14 21:30:11;;;;;;;36.83;20.67;;;-0.50;99.90;;;;;;5085565;28;20219;-76
2024/01/14 21:32:39;;;;;;;34.70;20.90;;;-0.50;99.90;;;;;;5084154;28;20184;-77
2024/01/14 21:35:06;;;;;;;40.53;21.37;;;-0.60;99.90;;;;;;5101146;28;20204;-76
2024/01/14 21:37:32;;;;;;;40.23;25.07;;;-0.60;99.90;;;;;;5083795;28;20215;-76
2024/01/14 21:39:59;;;;;;;39.40;21.37;;;-0.60;99.90;;;;;;5082658;28;20639;-77
2024/01/14 21:42:25;;;;;;;39.53;21.67;;;-0.60;99.90;;;;;;5082462;28;20191;-77
2024/01/14 21:44:50;;;;;;;40.87;22.77;;;-0.60;99.90;;;;;;5082775;28;20244;-76
2024/01/14 21:47:16;;;;;;;103.23;52.43;;;-0.60;99.90;;;;;;5083853;28;20204;-76
2024/01/14 21:50:02;;;;;;;77.10;42.60;;;-0.60;99.90;;;;;;5100121;28;20188;-76
2024/01/14 21:52:32;;;;;;;74.70;38.40;;;-0.60;99.90;;;;;;5082164;28;20226;-76
2024/01/14 21:54:57;;;;;;;58.67;32.77;;;-0.50;99.90;;;;;;5083885;28;20237;-76
2024/01/14 21:57:23;;;;;;;58.40;31.83;;;-0.50;99.90;;;;;;5082491;28;20234;-75
2024/01/14 21:59:48;;;;;;;77.50;41.27;;;-0.60;99.90;;;;;;5078204;28;20177;-75
2024/01/14 22:02:14;;;;;;;44.93;27.13;;;-0.60;99.90;;;;;;5097498;28;20176;-75
2024/01/14 22:04:40;;;;;;;39.77;22.97;;;-0.60;99.90;;;;;;5097276;28;20180;-75
2024/01/14 22:07:05;;;;;;;45.77;23.50;;;-0.60;99.90;;;;;;5082896;28;20205;-75
2024/01/14 22:09:31;;;;;;;39.83;23.37;;;-0.70;99.90;;;;;;5081407;28;20192;-76
2024/01/14 22:11:56;;;;;;;40.33;23.47;;;-0.70;99.90;;;;;;5102985;28;20183;-76
2024/01/14 22:14:22;;;;;;;40.37;23.03;;;-0.70;99.90;;;;;;5077743;28;20241;-77
2024/01/14 22:16:48;;;;;;;42.20;23.60;;;-0.70;99.90;;;;;;5094200;28;20197;-75
2024/01/14 22:19:13;;;;;;;39.67;22.37;;;-0.70;99.90;;;;;;5093317;28;20176;-75
2024/01/14 22:21:40;;;;;;;39.17;22.13;;;-0.60;99.90;;;;;;5094564;28;20204;-76
2024/01/14 22:24:06;;;;;;;40.87;22.07;;;-0.60;99.90;;;;;;5077273;28;20177;-77
2024/01/14 22:26:33;;;;;;;39.33;22.33;;;-0.70;99.90;;;;;;5077531;28;20295;-77
2024/01/14 22:28:59;;;;;;;38.47;22.27;;;-0.70;99.90;;;;;;5078304;28;20522;-77
2024/01/14 22:31:25;;;;;;;37.40;22.37;;;-0.70;99.90;;;;;;5077784;28;20181;-77
2024/01/14 22:33:52;;;;;;;42.73;22.23;;;-0.70;99.90;;;;;;5077845;28;20204;-77
2024/01/14 22:36:17;;;;;;;38.20;22.87;;;-0.70;99.90;;;;;;5077838;28;20226;-77
2024/01/14 22:38:44;;;;;;;40.77;22.10;;;-0.70;99.90;;;;;;5078488;28;20177;-78
2024/01/14 22:41:11;;;;;;;40.87;21.93;;;-0.60;99.90;;;;;;5077266;28;20177;-75
2024/01/14 22:43:38;;;;;;;46.57;23.10;;;-0.70;99.90;;;;;;5093977;28;20229;-74
2024/01/14 22:46:04;;;;;;;43.13;23.83;;;-0.80;99.90;;;;;;5075776;28;20200;-75
2024/01/14 22:48:30;;;;;;;42.20;23.37;;;-0.80;99.90;;;;;;5077871;28;20191;-77
2024/01/14 22:50:56;;;;;;;44.90;23.27;;;-0.90;99.90;;;;;;5084244;28;20192;-78
2024/01/14 22:53:22;;;;;;;40.93;22.83;;;-0.90;99.90;;;;;;5100521;28;20177;-78
2024/01/14 22:55:48;;;;;;;42.83;23.57;;;-0.90;99.90;;;;;;5076521;28;20179;-76
2024/01/14 22:58:15;;;;;;;41.83;22.77;;;-0.80;99.90;;;;;;5077186;28;20169;-77
2024/01/14 23:00:42;;;;;;;42.70;23.97;;;-0.90;99.90;;;;;;5095091;28;20184;-77
2024/01/14 23:03:08;;;;;;;41.70;22.93;;;-0.90;99.90;;;;;;5095853;28;20165;-77
2024/01/14 23:05:38;;;;;;;43.10;23.17;;;-0.90;99.90;;;;;;5077462;28;20177;-77
2024/01/14 23:08:04;;;;;;;45.00;24.50;;;-0.90;99.90;;;;;;5077039;28;20196;-76
2024/01/14 23:10:30;;;;;;;48.33;25.37;;;-0.90;99.90;;;;;;5094521;28;20210;-77
2024/01/14 23:12:56;;;;;;;50.03;24.07;;;-1.00;99.90;;;;;;5076462;28;20271;-77
2024/01/14 23:15:21;;;;;;;47.97;23.90;;;-1.10;99.90;;;;;;5076605;28;20205;-78
2024/01/14 23:17:47;;;;;;;48.67;24.27;;;-1.10;99.90;;;;;;5095022;28;20277;-77
2024/01/14 23:20:13;;;;;;;44.00;24.27;;;-1.10;99.90;;;;;;5094429;28;20165;-77
2024/01/14 23:22:39;;;;;;;42.57;23.53;;;-1.10;99.90;;;;;;5076762;28;20199;-77
2024/01/14 23:25:06;;;;;;;43.47;24.33;;;-1.00;99.90;;;;;;5076828;28;20177;-77
2024/01/14 23:27:33;;;;;;;43.23;23.10;;;-1.00;99.90;;;;;;5076204;28;20207;-77
2024/01/14 23:29:58;;;;;;;44.17;23.97;;;-1.00;99.90;;;;;;5094909;28;20205;-77
2024/01/14 23:32:24;;;;;;;48.27;24.67;;;-1.00;99.90;;;;;;5094467;28;20192;-77
2024/01/14 23:34:49;;;;;;;43.00;24.10;;;-1.00;99.90;;;;;;5075958;28;20208;-77
2024/01/14 23:37:15;;;;;;;48.60;24.73;;;-1.00;99.90;;;;;;5075481;28;20201;-75
2024/01/14 23:39:40;;;;;;;44.73;24.50;;;-1.00;99.90;;;;;;5075272;28;20217;-75
2024/01/14 23:42:06;;;;;;;46.67;25.13;;;-1.00;99.90;;;;;;5093305;28;20173;-75
2024/01/14 23:44:32;;;;;;;42.63;24.23;;;-1.10;99.90;;;;;;5075209;28;20180;-75
2024/01/14 23:46:58;;;;;;;49.07;24.90;;;-1.10;99.90;;;;;;5075087;28;20291;-75
2024/01/14 23:49:23;;;;;;;46.40;24.57;;;-1.10;99.90;;;;;;5075862;28;20172;-75
2024/01/14 23:51:49;;;;;;;46.67;24.67;;;-1.00;99.90;;;;;;5075429;28;20281;-75
2024/01/14 23:54:16;;;;;;;49.13;24.43;;;-1.00;99.90;;;;;;5074854;28;20338;-75
2024/01/14 23:56:42;;;;;;;46.93;25.00;;;-1.00;99.90;;;;;;5093171;28;20275;-75
2024/01/14 23:59:07;;;;;;;47.93;24.37;;;-1.10;99.90;;;;;;5075505;28;20259;-75
